Asheville Regional Airport (AVL)

 

Airport Diagram
Current Weather/Forecast (VFR Conditions)
METAR KAVL 020754Z AUTO 34006KT 10SM OVC040 06/00 A3002 RMK AO2 SLP163 T00610000
TAF KAVL 020529Z 0206/0306 33008G15KT P6SM FEW040 SCT080 FM020800 34011KT P6SM FEW080 SCT100 FM021600 35011G19KT P6SM SKC FM022300 34009KT P6SM SKC

All Charts
General
Chart Name Download
AIRPORT DIAGRAM
TAKEOFF MINIMUMS
ALTERNATE MINIMUMS
HOT SPOT

Departures
Chart Name Download
ASHEVILLE FIVE

Approaches
Chart Name Download
ILS OR LOC RWY 35
RNAV (GPS) RWY 17
RNAV (GPS) RWY 35


Inbound Traffic (Arrivals)

No inbound traffic.


Outbound Traffic (Departures)

No outbound traffic.